sensor_id;sensor_type;location;lat;lon;timestamp;pressure;altitude;pressure_sealevel;temperature;humidity
42415;BME280;28058;46.344;17.786;2023-04-04T00:00:23;118336.50;;;-144.97;44.49
42415;BME280;28058;46.344;17.786;2023-04-04T00:02:50;118336.50;;;-144.97;45.04
42415;BME280;28058;46.344;17.786;2023-04-04T00:05:17;118336.50;;;-144.97;45.24
42415;BME280;28058;46.344;17.786;2023-04-04T00:07:44;118336.50;;;-144.97;45.11
42415;BME280;28058;46.344;17.786;2023-04-04T00:10:11;118336.50;;;-144.97;45.10
42415;BME280;28058;46.344;17.786;2023-04-04T00:12:38;118336.50;;;-144.97;45.23
42415;BME280;28058;46.344;17.786;2023-04-04T00:15:05;118336.50;;;-144.97;45.85
42415;BME280;28058;46.344;17.786;2023-04-04T00:17:32;118336.50;;;-144.97;46.20
42415;BME280;28058;46.344;17.786;2023-04-04T00:19:59;118336.50;;;-144.97;46.07
42415;BME280;28058;46.344;17.786;2023-04-04T00:22:25;118336.50;;;-144.97;46.40
42415;BME280;28058;46.344;17.786;2023-04-04T00:24:52;118336.50;;;-144.97;46.21
42415;BME280;28058;46.344;17.786;2023-04-04T00:27:19;118336.50;;;-144.97;46.55
42415;BME280;28058;46.344;17.786;2023-04-04T00:29:45;118336.50;;;-144.97;47.18
42415;BME280;28058;46.344;17.786;2023-04-04T00:32:12;118336.50;;;-144.97;46.58
42415;BME280;28058;46.344;17.786;2023-04-04T00:34:39;118336.50;;;-144.97;47.07
42415;BME280;28058;46.344;17.786;2023-04-04T00:37:06;118336.50;;;-144.97;47.07
42415;BME280;28058;46.344;17.786;2023-04-04T00:39:32;118336.50;;;-144.97;46.76
42415;BME280;28058;46.344;17.786;2023-04-04T00:41:59;118336.50;;;-144.97;47.48
42415;BME280;28058;46.344;17.786;2023-04-04T00:44:26;118336.50;;;-144.97;47.21
42415;BME280;28058;46.344;17.786;2023-04-04T00:46:53;118336.50;;;-144.97;47.98
42415;BME280;28058;46.344;17.786;2023-04-04T00:49:20;118336.50;;;-144.97;48.00
42415;BME280;28058;46.344;17.786;2023-04-04T00:51:47;118336.50;;;-144.97;48.55
42415;BME280;28058;46.344;17.786;2023-04-04T00:54:13;118336.50;;;-144.97;49.00
42415;BME280;28058;46.344;17.786;2023-04-04T00:56:40;118336.50;;;-144.97;49.08
42415;BME280;28058;46.344;17.786;2023-04-04T00:59:07;118336.50;;;-144.97;49.67
42415;BME280;28058;46.344;17.786;2023-04-04T01:01:34;118336.50;;;-144.97;49.50
42415;BME280;28058;46.344;17.786;2023-04-04T01:04:01;118336.50;;;-144.97;50.79
42415;BME280;28058;46.344;17.786;2023-04-04T01:06:28;118336.50;;;-144.97;50.35
42415;BME280;28058;46.344;17.786;2023-04-04T01:08:56;118336.50;;;-144.97;50.02
42415;BME280;28058;46.344;17.786;2023-04-04T01:11:23;118336.50;;;-144.97;49.98
42415;BME280;28058;46.344;17.786;2023-04-04T01:13:50;118336.50;;;-144.97;49.94
42415;BME280;28058;46.344;17.786;2023-04-04T01:16:17;118336.50;;;-144.97;50.18
42415;BME280;28058;46.344;17.786;2023-04-04T01:18:43;118336.50;;;-144.97;50.41
42415;BME280;28058;46.344;17.786;2023-04-04T01:21:12;118336.50;;;-144.97;50.88
42415;BME280;28058;46.344;17.786;2023-04-04T01:23:45;118336.50;;;-144.97;51.71
42415;BME280;28058;46.344;17.786;2023-04-04T01:26:14;118336.50;;;-144.97;52.33
42415;BME280;28058;46.344;17.786;2023-04-04T01:28:41;118336.50;;;-144.97;52.73
42415;BME280;28058;46.344;17.786;2023-04-04T01:31:09;118336.50;;;-144.97;53.16
42415;BME280;28058;46.344;17.786;2023-04-04T01:33:45;118336.50;;;-144.97;52.44
42415;BME280;28058;46.344;17.786;2023-04-04T01:36:27;118336.50;;;-144.97;53.16
42415;BME280;28058;46.344;17.786;2023-04-04T01:39:13;118336.50;;;-144.97;53.55
42415;BME280;28058;46.344;17.786;2023-04-04T01:41:40;118336.50;;;-144.97;52.47
42415;BME280;28058;46.344;17.786;2023-04-04T01:44:08;118336.50;;;-144.97;52.31
42415;BME280;28058;46.344;17.786;2023-04-04T01:46:35;118336.50;;;-144.97;52.93
42415;BME280;28058;46.344;17.786;2023-04-04T01:49:02;118336.50;;;-144.97;53.80
42415;BME280;28058;46.344;17.786;2023-04-04T01:51:29;118336.50;;;-144.97;54.13
42415;BME280;28058;46.344;17.786;2023-04-04T01:53:56;118336.50;;;-144.97;55.03
42415;BME280;28058;46.344;17.786;2023-04-04T01:56:23;118336.50;;;-144.97;55.25
42415;BME280;28058;46.344;17.786;2023-04-04T01:58:50;118336.50;;;-144.97;55.72
42415;BME280;28058;46.344;17.786;2023-04-04T02:01:17;118336.50;;;-144.97;56.76
42415;BME280;28058;46.344;17.786;2023-04-04T02:03:44;118336.50;;;-144.97;57.14
42415;BME280;28058;46.344;17.786;2023-04-04T02:06:11;118336.50;;;-144.97;57.42
42415;BME280;28058;46.344;17.786;2023-04-04T02:08:38;118336.50;;;-144.97;57.84
42415;BME280;28058;46.344;17.786;2023-04-04T02:11:05;118336.50;;;-144.97;59.08
42415;BME280;28058;46.344;17.786;2023-04-04T02:13:32;118336.50;;;-144.97;61.65
42415;BME280;28058;46.344;17.786;2023-04-04T02:15:58;118336.50;;;-144.97;63.91
42415;BME280;28058;46.344;17.786;2023-04-04T02:18:25;118336.50;;;-144.97;65.25
42415;BME280;28058;46.344;17.786;2023-04-04T02:20:55;118336.50;;;-144.97;65.96
42415;BME280;28058;46.344;17.786;2023-04-04T02:23:22;118336.50;;;-144.97;66.67
42415;BME280;28058;46.344;17.786;2023-04-04T02:25:49;118336.50;;;-144.97;67.27
42415;BME280;28058;46.344;17.786;2023-04-04T02:28:16;118336.50;;;-144.97;67.28
42415;BME280;28058;46.344;17.786;2023-04-04T02:30:43;118336.50;;;-144.97;67.69
42415;BME280;28058;46.344;17.786;2023-04-04T02:33:09;118336.50;;;-144.97;67.97
42415;BME280;28058;46.344;17.786;2023-04-04T02:35:36;118336.50;;;-144.97;67.84
42415;BME280;28058;46.344;17.786;2023-04-04T02:38:03;118336.50;;;-144.97;67.78
42415;BME280;28058;46.344;17.786;2023-04-04T02:40:29;118336.50;;;-144.97;68.28
42415;BME280;28058;46.344;17.786;2023-04-04T02:42:56;118336.50;;;-144.97;68.13
42415;BME280;28058;46.344;17.786;2023-04-04T02:45:23;118336.50;;;-144.97;68.31
42415;BME280;28058;46.344;17.786;2023-04-04T02:47:49;118336.50;;;-144.97;68.49
42415;BME280;28058;46.344;17.786;2023-04-04T02:50:17;118336.50;;;-144.97;67.59
42415;BME280;28058;46.344;17.786;2023-04-04T02:52:44;118336.50;;;-144.97;67.16
42415;BME280;28058;46.344;17.786;2023-04-04T02:55:10;118336.50;;;-144.97;68.03
42415;BME280;28058;46.344;17.786;2023-04-04T02:57:37;118336.50;;;-144.97;69.01
42415;BME280;28058;46.344;17.786;2023-04-04T03:00:04;118336.50;;;-144.97;69.00
42415;BME280;28058;46.344;17.786;2023-04-04T03:02:32;118336.50;;;-144.97;68.62
42415;BME280;28058;46.344;17.786;2023-04-04T03:04:59;118336.50;;;-144.97;69.54
42415;BME280;28058;46.344;17.786;2023-04-04T03:07:26;118336.50;;;-144.97;69.38
42415;BME280;28058;46.344;17.786;2023-04-04T03:09:52;118336.50;;;-144.97;69.51
42415;BME280;28058;46.344;17.786;2023-04-04T03:12:19;118336.50;;;-144.97;68.88
42415;BME280;28058;46.344;17.786;2023-04-04T03:14:47;118336.50;;;-144.97;70.57
42415;BME280;28058;46.344;17.786;2023-04-04T03:17:14;118336.50;;;-144.97;69.73
42415;BME280;28058;46.344;17.786;2023-04-04T03:19:40;118336.50;;;-144.97;70.81
42415;BME280;28058;46.344;17.786;2023-04-04T03:22:07;118336.50;;;-144.97;69.89
42415;BME280;28058;46.344;17.786;2023-04-04T03:24:34;118336.50;;;-144.97;70.44
42415;BME280;28058;46.344;17.786;2023-04-04T03:27:01;118336.50;;;-144.97;70.67
42415;BME280;28058;46.344;17.786;2023-04-04T03:29:28;118336.50;;;-144.97;70.67
42415;BME280;28058;46.344;17.786;2023-04-04T03:31:54;118336.50;;;-144.97;71.24
42415;BME280;28058;46.344;17.786;2023-04-04T03:34:21;118336.50;;;-144.97;71.38
42415;BME280;28058;46.344;17.786;2023-04-04T03:36:50;118336.50;;;-144.97;71.72
42415;BME280;28058;46.344;17.786;2023-04-04T03:39:18;118336.50;;;-144.97;72.06
42415;BME280;28058;46.344;17.786;2023-04-04T03:41:45;118336.50;;;-144.97;71.09
42415;BME280;28058;46.344;17.786;2023-04-04T03:44:12;118336.50;;;-144.97;72.61
42415;BME280;28058;46.344;17.786;2023-04-04T03:46:38;118336.50;;;-144.97;72.80
42415;BME280;28058;46.344;17.786;2023-04-04T03:49:05;118336.50;;;-144.97;71.99
42415;BME280;28058;46.344;17.786;2023-04-04T03:51:32;118336.50;;;-144.97;72.50
42415;BME280;28058;46.344;17.786;2023-04-04T03:53:59;118336.50;;;-144.97;73.36
42415;BME280;28058;46.344;17.786;2023-04-04T03:56:25;118336.50;;;-144.97;73.74
42415;BME280;28058;46.344;17.786;2023-04-04T03:58:52;118336.50;;;-144.97;73.91
42415;BME280;28058;46.344;17.786;2023-04-04T04:01:21;118336.50;;;-144.97;74.39
42415;BME280;28058;46.344;17.786;2023-04-04T04:03:48;118336.50;;;-144.97;74.52
42415;BME280;28058;46.344;17.786;2023-04-04T04:06:15;118336.50;;;-144.97;74.97
42415;BME280;28058;46.344;17.786;2023-04-04T04:08:42;118336.50;;;-144.97;75.07
42415;BME280;28058;46.344;17.786;2023-04-04T04:11:09;118336.50;;;-144.97;75.35
42415;BME280;28058;46.344;17.786;2023-04-04T04:13:35;118336.50;;;-144.97;75.51
42415;BME280;28058;46.344;17.786;2023-04-04T04:16:04;118336.50;;;-144.97;76.21
42415;BME280;28058;46.344;17.786;2023-04-04T04:18:31;118336.50;;;-144.97;77.29
42415;BME280;28058;46.344;17.786;2023-04-04T04:20:58;118336.50;;;-144.97;77.43
42415;BME280;28058;46.344;17.786;2023-04-04T04:23:25;118336.50;;;-144.97;77.20
42415;BME280;28058;46.344;17.786;2023-04-04T04:25:51;118336.50;;;-144.97;77.64
42415;BME280;28058;46.344;17.786;2023-04-04T04:28:18;118336.50;;;-144.97;77.20
42415;BME280;28058;46.344;17.786;2023-04-04T04:30:45;118336.50;;;-144.97;78.38
42415;BME280;28058;46.344;17.786;2023-04-04T04:33:11;118336.50;;;-144.97;78.09
42415;BME280;28058;46.344;17.786;2023-04-04T04:35:38;118336.50;;;-144.97;78.57
42415;BME280;28058;46.344;17.786;2023-04-04T04:38:05;118336.50;;;-144.97;79.18
42415;BME280;28058;46.344;17.786;2023-04-04T04:40:32;118336.50;;;-144.97;79.21
42415;BME280;28058;46.344;17.786;2023-04-04T04:42:59;118336.50;;;-144.97;79.44
42415;BME280;28058;46.344;17.786;2023-04-04T04:45:26;118336.50;;;-144.97;79.36
42415;BME280;28058;46.344;17.786;2023-04-04T04:47:53;118336.50;;;-144.97;79.85
42415;BME280;28058;46.344;17.786;2023-04-04T04:50:20;118336.50;;;-144.97;79.58
42415;BME280;28058;46.344;17.786;2023-04-04T04:52:48;118336.50;;;-144.97;79.50
42415;BME280;28058;46.344;17.786;2023-04-04T04:55:15;118336.50;;;-144.97;79.66
42415;BME280;28058;46.344;17.786;2023-04-04T04:57:43;118336.50;;;-144.97;79.54
42415;BME280;28058;46.344;17.786;2023-04-04T05:00:09;118336.50;;;-144.97;79.93
42415;BME280;28058;46.344;17.786;2023-04-04T05:02:36;118336.50;;;-144.97;80.05
42415;BME280;28058;46.344;17.786;2023-04-04T05:05:03;118336.50;;;-144.97;80.03
42415;BME280;28058;46.344;17.786;2023-04-04T05:07:30;118336.50;;;-144.97;79.47
42415;BME280;28058;46.344;17.786;2023-04-04T05:09:57;118336.50;;;-144.97;78.71
42415;BME280;28058;46.344;17.786;2023-04-04T05:12:24;118336.50;;;-144.97;79.44
42415;BME280;28058;46.344;17.786;2023-04-04T05:14:50;118336.50;;;-144.97;79.36
42415;BME280;28058;46.344;17.786;2023-04-04T05:17:17;118336.50;;;-144.97;79.27
42415;BME280;28058;46.344;17.786;2023-04-04T05:19:43;118336.50;;;-144.97;79.58
42415;BME280;28058;46.344;17.786;2023-04-04T05:22:10;118336.50;;;-144.97;79.49
42415;BME280;28058;46.344;17.786;2023-04-04T05:24:37;118336.50;;;-144.97;79.34
42415;BME280;28058;46.344;17.786;2023-04-04T05:27:04;118336.50;;;-144.97;79.38
42415;BME280;28058;46.344;17.786;2023-04-04T05:29:30;118336.50;;;-144.97;79.03
42415;BME280;28058;46.344;17.786;2023-04-04T05:31:58;118336.50;;;-144.97;79.06
42415;BME280;28058;46.344;17.786;2023-04-04T05:34:25;118336.50;;;-144.97;78.29
42415;BME280;28058;46.344;17.786;2023-04-04T05:36:52;118336.50;;;-144.97;79.75
42415;BME280;28058;46.344;17.786;2023-04-04T05:39:18;118336.50;;;-144.97;79.67
42415;BME280;28058;46.344;17.786;2023-04-04T05:41:45;118336.50;;;-144.97;78.99
42415;BME280;28058;46.344;17.786;2023-04-04T05:44:11;118336.50;;;-144.97;78.65
42415;BME280;28058;46.344;17.786;2023-04-04T05:46:38;118336.50;;;-144.97;79.32
42415;BME280;28058;46.344;17.786;2023-04-04T05:49:05;118336.50;;;-144.97;78.63
42415;BME280;28058;46.344;17.786;2023-04-04T05:51:31;118336.50;;;-144.97;78.83
42415;BME280;28058;46.344;17.786;2023-04-04T05:53:58;118336.50;;;-144.97;79.13
42415;BME280;28058;46.344;17.786;2023-04-04T05:56:25;118336.50;;;-144.97;78.66
42415;BME280;28058;46.344;17.786;2023-04-04T05:58:51;118336.50;;;-144.97;78.19
42415;BME280;28058;46.344;17.786;2023-04-04T06:01:18;118336.50;;;-144.97;77.91
42415;BME280;28058;46.344;17.786;2023-04-04T06:03:45;118336.50;;;-144.97;77.52
42415;BME280;28058;46.344;17.786;2023-04-04T06:06:12;118336.50;;;-144.97;77.69
42415;BME280;28058;46.344;17.786;2023-04-04T06:08:39;118336.50;;;-144.97;78.54
42415;BME280;28058;46.344;17.786;2023-04-04T06:11:19;118336.50;;;-144.97;77.23
42415;BME280;28058;46.344;17.786;2023-04-04T06:13:48;118336.50;;;-144.97;77.06
42415;BME280;28058;46.344;17.786;2023-04-04T06:16:14;118336.50;;;-144.97;74.88
42415;BME280;28058;46.344;17.786;2023-04-04T06:18:41;118336.50;;;-144.97;75.15
42415;BME280;28058;46.344;17.786;2023-04-04T06:21:08;118336.50;;;-144.97;72.40
42415;BME280;28058;46.344;17.786;2023-04-04T06:23:34;118336.50;;;-144.97;72.05
42415;BME280;28058;46.344;17.786;2023-04-04T06:26:03;118336.50;;;-144.97;70.22
42415;BME280;28058;46.344;17.786;2023-04-04T06:28:29;118336.50;;;-144.97;69.21
42415;BME280;28058;46.344;17.786;2023-04-04T06:30:56;118336.50;;;-144.97;68.26
42415;BME280;28058;46.344;17.786;2023-04-04T06:33:23;118336.50;;;-144.97;67.14
42415;BME280;28058;46.344;17.786;2023-04-04T06:35:50;118336.50;;;-144.97;66.08
42415;BME280;28058;46.344;17.786;2023-04-04T06:38:16;118336.50;;;-144.97;62.79
42415;BME280;28058;46.344;17.786;2023-04-04T06:40:44;118336.50;;;-144.97;60.01
42415;BME280;28058;46.344;17.786;2023-04-04T06:43:10;118336.50;;;-144.97;58.83
42415;BME280;28058;46.344;17.786;2023-04-04T06:45:37;118336.50;;;-144.97;57.52
42415;BME280;28058;46.344;17.786;2023-04-04T06:48:04;118336.50;;;-144.97;59.61
42415;BME280;28058;46.344;17.786;2023-04-04T06:50:31;118336.50;;;-144.97;57.63
42415;BME280;28058;46.344;17.786;2023-04-04T06:52:58;118336.50;;;-144.97;58.29
42415;BME280;28058;46.344;17.786;2023-04-04T06:55:26;118336.50;;;-144.97;55.65
42415;BME280;28058;46.344;17.786;2023-04-04T06:57:53;118336.50;;;-144.97;55.79
42415;BME280;28058;46.344;17.786;2023-04-04T07:00:20;118336.50;;;-144.97;55.21
42415;BME280;28058;46.344;17.786;2023-04-04T07:02:47;118336.50;;;-144.97;53.05
42415;BME280;28058;46.344;17.786;2023-04-04T07:05:14;118336.50;;;-144.97;52.08
42415;BME280;28058;46.344;17.786;2023-04-04T07:07:43;118336.50;;;-144.97;50.49
42415;BME280;28058;46.344;17.786;2023-04-04T07:10:11;118336.50;;;-144.97;50.41
42415;BME280;28058;46.344;17.786;2023-04-04T07:12:38;118336.50;;;-144.97;52.18
42415;BME280;28058;46.344;17.786;2023-04-04T07:15:04;118336.50;;;-144.97;49.08
42415;BME280;28058;46.344;17.786;2023-04-04T07:17:32;118336.50;;;-144.97;49.64
42415;BME280;28058;46.344;17.786;2023-04-04T07:20:02;118336.50;;;-144.97;49.43
42415;BME280;28058;46.344;17.786;2023-04-04T07:22:30;118336.50;;;-144.97;49.24
42415;BME280;28058;46.344;17.786;2023-04-04T07:24:56;118336.50;;;-144.97;48.71
42415;BME280;28058;46.344;17.786;2023-04-04T07:27:23;118336.50;;;-144.97;48.25
42415;BME280;28058;46.344;17.786;2023-04-04T07:29:50;118336.50;;;-144.97;47.26
42415;BME280;28058;46.344;17.786;2023-04-04T07:32:17;118336.50;;;-144.97;45.35
42415;BME280;28058;46.344;17.786;2023-04-04T07:34:44;118336.50;;;-144.97;45.08
42415;BME280;28058;46.344;17.786;2023-04-04T07:37:12;118336.50;;;-144.97;45.90
42415;BME280;28058;46.344;17.786;2023-04-04T07:39:39;118336.50;;;-144.97;45.78
42415;BME280;28058;46.344;17.786;2023-04-04T07:42:06;118336.50;;;-144.97;46.05
42415;BME280;28058;46.344;17.786;2023-04-04T07:44:32;118336.50;;;-144.97;45.50
42415;BME280;28058;46.344;17.786;2023-04-04T07:46:59;118336.50;;;-144.97;44.41
42415;BME280;28058;46.344;17.786;2023-04-04T07:49:35;118336.50;;;-144.97;44.78
42415;BME280;28058;46.344;17.786;2023-04-04T07:52:02;118336.50;;;-144.97;43.26
42415;BME280;28058;46.344;17.786;2023-04-04T07:54:29;118336.50;;;-144.97;43.29
42415;BME280;28058;46.344;17.786;2023-04-04T07:56:56;118336.50;;;-144.97;43.07
42415;BME280;28058;46.344;17.786;2023-04-04T07:59:23;118336.50;;;-144.97;43.10
42415;BME280;28058;46.344;17.786;2023-04-04T08:01:50;118336.50;;;-144.97;41.92
42415;BME280;28058;46.344;17.786;2023-04-04T08:04:16;118336.50;;;-144.97;41.66
42415;BME280;28058;46.344;17.786;2023-04-04T08:06:43;118336.50;;;-144.97;40.61
42415;BME280;28058;46.344;17.786;2023-04-04T08:09:10;118336.50;;;-144.97;39.48
42415;BME280;28058;46.344;17.786;2023-04-04T08:11:36;118336.50;;;-144.97;39.29
42415;BME280;28058;46.344;17.786;2023-04-04T08:14:03;118336.50;;;-144.97;39.42
42415;BME280;28058;46.344;17.786;2023-04-04T08:16:30;118336.50;;;-144.97;39.13
42415;BME280;28058;46.344;17.786;2023-04-04T08:18:56;118336.50;;;-144.97;37.86
42415;BME280;28058;46.344;17.786;2023-04-04T08:21:25;118336.50;;;-144.97;36.87
42415;BME280;28058;46.344;17.786;2023-04-04T08:23:52;118336.50;;;-144.97;36.03
42415;BME280;28058;46.344;17.786;2023-04-04T08:26:18;118336.50;;;-144.97;36.01
42415;BME280;28058;46.344;17.786;2023-04-04T08:28:45;118336.50;;;-144.97;35.48
42415;BME280;28058;46.344;17.786;2023-04-04T08:31:11;118336.50;;;-144.97;36.17
42415;BME280;28058;46.344;17.786;2023-04-04T08:33:38;118336.50;;;-144.97;36.37
42415;BME280;28058;46.344;17.786;2023-04-04T08:36:13;118336.50;;;-144.97;37.24
42415;BME280;28058;46.344;17.786;2023-04-04T08:38:39;118336.50;;;-144.97;37.92
42415;BME280;28058;46.344;17.786;2023-04-04T08:41:06;118336.50;;;-144.97;37.89
42415;BME280;28058;46.344;17.786;2023-04-04T08:43:33;118336.50;;;-144.97;38.45
42415;BME280;28058;46.344;17.786;2023-04-04T08:46:01;118336.50;;;-144.97;38.72
42415;BME280;28058;46.344;17.786;2023-04-04T08:48:29;118336.50;;;-144.97;38.89
42415;BME280;28058;46.344;17.786;2023-04-04T08:50:57;118336.50;;;-144.97;38.77
42415;BME280;28058;46.344;17.786;2023-04-04T08:53:25;118336.50;;;-144.97;39.27
42415;BME280;28058;46.344;17.786;2023-04-04T08:55:52;118336.50;;;-144.97;39.25
42415;BME280;28058;46.344;17.786;2023-04-04T08:58:19;118336.50;;;-144.97;39.12
42415;BME280;28058;46.344;17.786;2023-04-04T09:00:46;118336.50;;;-144.97;39.04
42415;BME280;28058;46.344;17.786;2023-04-04T09:03:25;118336.50;;;-144.97;38.01
42415;BME280;28058;46.344;17.786;2023-04-04T09:05:53;118336.50;;;-144.97;38.25
42415;BME280;28058;46.344;17.786;2023-04-04T09:08:21;118336.50;;;-144.97;37.86
42415;BME280;28058;46.344;17.786;2023-04-04T09:10:50;118336.50;;;-144.97;37.71
42415;BME280;28058;46.344;17.786;2023-04-04T09:13:17;118336.50;;;-144.97;37.02
42415;BME280;28058;46.344;17.786;2023-04-04T09:15:48;118336.50;;;-144.97;37.69
42415;BME280;28058;46.344;17.786;2023-04-04T09:18:15;118336.50;;;-144.97;37.09
42415;BME280;28058;46.344;17.786;2023-04-04T09:20:43;118336.50;;;-144.97;37.41
42415;BME280;28058;46.344;17.786;2023-04-04T09:23:14;118336.50;;;-144.97;38.17
42415;BME280;28058;46.344;17.786;2023-04-04T09:25:58;118336.50;;;-144.97;38.78
42415;BME280;28058;46.344;17.786;2023-04-04T09:28:29;118336.50;;;-144.97;38.64
42415;BME280;28058;46.344;17.786;2023-04-04T09:30:58;118336.50;;;-144.97;38.27
42415;BME280;28058;46.344;17.786;2023-04-04T09:33:25;118336.50;;;-144.97;38.13
42415;BME280;28058;46.344;17.786;2023-04-04T09:36:00;118336.50;;;-144.97;38.36
42415;BME280;28058;46.344;17.786;2023-04-04T09:38:28;118336.50;;;-144.97;37.87
42415;BME280;28058;46.344;17.786;2023-04-04T09:40:55;118336.50;;;-144.97;37.69
42415;BME280;28058;46.344;17.786;2023-04-04T09:43:23;118336.50;;;-144.97;38.08
42415;BME280;28058;46.344;17.786;2023-04-04T09:45:50;118336.50;;;-144.97;37.65
42415;BME280;28058;46.344;17.786;2023-04-04T09:48:24;118336.50;;;-144.97;37.80
42415;BME280;28058;46.344;17.786;2023-04-04T09:50:51;118336.50;;;-144.97;37.87
42415;BME280;28058;46.344;17.786;2023-04-04T09:53:17;118336.50;;;-144.97;38.29
42415;BME280;28058;46.344;17.786;2023-04-04T09:55:53;118336.50;;;-144.97;37.66
42415;BME280;28058;46.344;17.786;2023-04-04T09:58:27;118336.50;;;-144.97;37.52
42415;BME280;28058;46.344;17.786;2023-04-04T10:00:55;118336.50;;;-144.97;37.59
42415;BME280;28058;46.344;17.786;2023-04-04T10:03:22;118336.50;;;-144.97;37.27
42415;BME280;28058;46.344;17.786;2023-04-04T10:05:59;118336.50;;;-144.97;36.81
42415;BME280;28058;46.344;17.786;2023-04-04T10:08:29;118336.50;;;-144.97;37.16
42415;BME280;28058;46.344;17.786;2023-04-04T10:10:57;118336.50;;;-144.97;36.02
42415;BME280;28058;46.344;17.786;2023-04-04T10:13:36;118336.50;;;-144.97;36.61
42415;BME280;28058;46.344;17.786;2023-04-04T10:16:06;118336.50;;;-144.97;36.25
42415;BME280;28058;46.344;17.786;2023-04-04T10:18:34;118336.50;;;-144.97;37.04
42415;BME280;28058;46.344;17.786;2023-04-04T10:21:03;118336.50;;;-144.97;36.50
42415;BME280;28058;46.344;17.786;2023-04-04T10:23:41;118336.50;;;-144.97;35.86
42415;BME280;28058;46.344;17.786;2023-04-04T10:26:08;118336.50;;;-144.97;36.05
42415;BME280;28058;46.344;17.786;2023-04-04T10:28:35;118336.50;;;-144.97;36.20
42415;BME280;28058;46.344;17.786;2023-04-04T10:31:15;118336.50;;;-144.97;36.63
42415;BME280;28058;46.344;17.786;2023-04-04T10:36:13;118336.50;;;-144.97;36.37
42415;BME280;28058;46.344;17.786;2023-04-04T10:38:42;118336.50;;;-144.97;36.21
42415;BME280;28058;46.344;17.786;2023-04-04T10:41:10;118336.50;;;-144.97;37.66
42415;BME280;28058;46.344;17.786;2023-04-04T10:43:39;118336.50;;;-144.97;36.88
42415;BME280;28058;46.344;17.786;2023-04-04T10:46:14;118336.50;;;-144.97;36.98
42415;BME280;28058;46.344;17.786;2023-04-04T10:48:41;118336.50;;;-144.97;36.99
42415;BME280;28058;46.344;17.786;2023-04-04T10:51:10;118336.50;;;-144.97;36.58
42415;BME280;28058;46.344;17.786;2023-04-04T10:53:37;118336.50;;;-144.97;36.56
42415;BME280;28058;46.344;17.786;2023-04-04T10:56:05;118336.50;;;-144.97;36.47
42415;BME280;28058;46.344;17.786;2023-04-04T10:58:32;118336.50;;;-144.97;36.26
42415;BME280;28058;46.344;17.786;2023-04-04T11:14:27;118336.50;;;-144.97;36.87
42415;BME280;28058;46.344;17.786;2023-04-04T11:16:54;118336.50;;;-144.97;36.59
42415;BME280;28058;46.344;17.786;2023-04-04T11:19:23;118336.50;;;-144.97;36.09
42415;BME280;28058;46.344;17.786;2023-04-04T11:21:50;118336.50;;;-144.97;36.25
42415;BME280;28058;46.344;17.786;2023-04-04T11:24:17;118336.50;;;-144.97;36.64
42415;BME280;28058;46.344;17.786;2023-04-04T11:26:44;118336.50;;;-144.97;36.10
42415;BME280;28058;46.344;17.786;2023-04-04T11:29:19;118336.50;;;-144.97;35.69
42415;BME280;28058;46.344;17.786;2023-04-04T11:31:47;118336.50;;;-144.97;35.54
42415;BME280;28058;46.344;17.786;2023-04-04T11:34:14;118336.50;;;-144.97;35.76
42415;BME280;28058;46.344;17.786;2023-04-04T11:36:54;118336.50;;;-144.97;35.73
42415;BME280;28058;46.344;17.786;2023-04-04T11:39:28;118336.50;;;-144.97;35.45
42415;BME280;28058;46.344;17.786;2023-04-04T11:42:14;118336.50;;;-144.97;35.34
42415;BME280;28058;46.344;17.786;2023-04-04T11:44:42;118336.50;;;-144.97;35.28
42415;BME280;28058;46.344;17.786;2023-04-04T11:47:27;118336.50;;;-144.97;35.30
42415;BME280;28058;46.344;17.786;2023-04-04T11:49:55;118336.50;;;-144.97;35.54
42415;BME280;28058;46.344;17.786;2023-04-04T11:52:22;118336.50;;;-144.97;35.83
42415;BME280;28058;46.344;17.786;2023-04-04T11:54:51;118336.50;;;-144.97;35.77
42415;BME280;28058;46.344;17.786;2023-04-04T11:57:18;118336.50;;;-144.97;35.39
42415;BME280;28058;46.344;17.786;2023-04-04T11:59:49;118336.50;;;-144.97;35.62
42415;BME280;28058;46.344;17.786;2023-04-04T12:02:22;118336.50;;;-144.97;35.42
42415;BME280;28058;46.344;17.786;2023-04-04T12:04:50;118336.50;;;-144.97;35.29
42415;BME280;28058;46.344;17.786;2023-04-04T12:07:17;118336.50;;;-144.97;35.70
42415;BME280;28058;46.344;17.786;2023-04-04T12:09:44;118336.50;;;-144.97;36.10
42415;BME280;28058;46.344;17.786;2023-04-04T12:12:14;118336.50;;;-144.97;35.62
42415;BME280;28058;46.344;17.786;2023-04-04T12:14:44;118336.50;;;-144.97;36.62
42415;BME280;28058;46.344;17.786;2023-04-04T12:17:10;118336.50;;;-144.97;37.20
42415;BME280;28058;46.344;17.786;2023-04-04T12:19:37;118336.50;;;-144.97;37.07
42415;BME280;28058;46.344;17.786;2023-04-04T12:22:05;118336.50;;;-144.97;37.58
42415;BME280;28058;46.344;17.786;2023-04-04T12:24:34;118336.50;;;-144.97;37.63
42415;BME280;28058;46.344;17.786;2023-04-04T12:27:01;118336.50;;;-144.97;36.93
42415;BME280;28058;46.344;17.786;2023-04-04T12:29:29;118336.50;;;-144.97;37.04
42415;BME280;28058;46.344;17.786;2023-04-04T12:32:02;118336.50;;;-144.97;36.74
42415;BME280;28058;46.344;17.786;2023-04-04T12:34:31;118336.50;;;-144.97;37.02
42415;BME280;28058;46.344;17.786;2023-04-04T12:36:59;118336.50;;;-144.97;36.32
42415;BME280;28058;46.344;17.786;2023-04-04T12:39:26;118336.50;;;-144.97;36.45